createdAt,value
2023-02-28T00:03:02.508Z,5.20
2023-02-28T00:06:05.772Z,4.43
2023-02-28T00:12:09.455Z,5.18
2023-02-28T00:15:12.361Z,6.30
2023-02-28T00:18:14.234Z,4.95
2023-02-28T00:21:17.869Z,5.15
2023-02-28T00:24:19.774Z,5.35
2023-02-28T00:27:21.672Z,6.47
2023-02-28T00:30:24.480Z,6.03
2023-02-28T00:33:26.635Z,5.65
2023-02-28T00:36:30.153Z,4.15
2023-02-28T00:39:32.132Z,5.70
2023-02-28T00:42:37.553Z,6.32
2023-02-28T00:45:39.431Z,5.38
2023-02-28T00:48:41.405Z,5.10
2023-02-28T00:51:44.093Z,4.95
2023-02-28T00:54:46.426Z,8.55
2023-02-28T00:57:50.326Z,6.47
2023-02-28T01:00:55.305Z,5.57
2023-02-28T01:03:57.269Z,5.22
2023-02-28T01:07:01.455Z,5.93
2023-02-28T01:10:04.602Z,5.57
2023-02-28T01:13:06.528Z,5.45
2023-02-28T01:16:08.923Z,6.18
2023-02-28T01:19:11.226Z,6.95
2023-02-28T01:25:17.988Z,4.47
2023-02-28T01:28:22.172Z,6.40
2023-02-28T01:31:25.878Z,5.35
2023-02-28T01:34:27.930Z,6.32
2023-02-28T01:37:29.759Z,5.18
2023-02-28T01:40:31.685Z,5.75
2023-02-28T01:43:55.364Z,5.65
2023-02-28T01:46:57.349Z,8.38
2023-02-28T01:50:01.775Z,6.00
2023-02-28T01:53:09.361Z,6.00
2023-02-28T01:56:14.694Z,6.40
2023-02-28T01:59:31.648Z,6.82
2023-02-28T02:02:33.537Z,5.10
2023-02-28T02:05:38.491Z,5.72
2023-02-28T02:08:41.969Z,5.32
2023-02-28T02:11:46.108Z,5.95
2023-02-28T02:15:09.315Z,6.60
2023-02-28T02:18:20.379Z,5.03
2023-02-28T02:21:43.962Z,5.03
2023-02-28T02:25:14.819Z,7.10
2023-02-28T02:28:41.136Z,7.38
2023-02-28T02:31:43.158Z,5.95
2023-02-28T02:35:09.780Z,6.05
2023-02-28T02:38:36.023Z,5.70
2023-02-28T02:41:41.935Z,5.55
2023-02-28T02:44:49.258Z,6.97
2023-02-28T02:47:52.912Z,7.75
2023-02-28T02:51:01.812Z,6.03
2023-02-28T02:54:12.587Z,6.13
2023-02-28T02:57:24.437Z,4.68
2023-02-28T03:00:32.302Z,6.38
2023-02-28T03:03:35.242Z,6.10
2023-02-28T03:06:37.772Z,5.38
2023-02-28T03:09:39.634Z,5.15
2023-02-28T03:12:52.626Z,7.03
2023-02-28T03:16:25.505Z,6.57
2023-02-28T03:19:45.440Z,6.57
2023-02-28T03:22:53.537Z,8.10
2023-02-28T03:26:07.195Z,5.68
2023-02-28T03:29:19.472Z,6.13
2023-02-28T03:32:30.859Z,5.57
2023-02-28T03:35:38.853Z,5.72
2023-02-28T03:38:47.311Z,6.30
2023-02-28T03:41:54.398Z,5.90
2023-02-28T03:45:00.605Z,6.75
2023-02-28T03:48:09.990Z,5.60
2023-02-28T03:54:24.188Z,7.05
2023-02-28T03:57:36.878Z,7.35
2023-02-28T04:00:44.633Z,6.97
2023-02-28T04:03:51.063Z,6.45
2023-02-28T04:06:54.277Z,6.80
2023-02-28T04:09:56.235Z,7.00
2023-02-28T04:12:58.096Z,6.95
2023-02-28T04:16:00.094Z,5.35
2023-02-28T04:19:05.880Z,5.68
2023-02-28T04:22:10.203Z,8.35
2023-02-28T04:25:12.037Z,6.18
2023-02-28T04:28:13.918Z,7.22
2023-02-28T04:31:18.249Z,7.07
2023-02-28T04:34:21.705Z,6.88
2023-02-28T04:37:23.532Z,8.07
2023-02-28T04:40:25.386Z,6.05
2023-02-28T04:43:28.800Z,7.05
2023-02-28T04:46:30.656Z,6.47
2023-02-28T04:49:32.761Z,5.70
2023-02-28T04:52:34.653Z,6.47
2023-02-28T04:55:36.685Z,6.18
2023-02-28T04:58:38.557Z,6.43
2023-02-28T05:01:40.432Z,8.23
2023-02-28T05:04:42.286Z,6.75
2023-02-28T05:07:44.161Z,7.05
2023-02-28T05:10:46.212Z,6.82
2023-02-28T05:13:48.664Z,7.70
2023-02-28T05:16:50.690Z,8.27
2023-02-28T05:19:52.694Z,7.80
2023-02-28T05:22:54.778Z,7.35
2023-02-28T05:25:57.799Z,7.22
2023-02-28T05:28:59.731Z,8.02
2023-02-28T05:32:01.786Z,8.15
2023-02-28T05:35:04.478Z,8.50
2023-02-28T05:38:06.438Z,8.95
2023-02-28T05:41:10.018Z,7.53
2023-02-28T05:44:14.469Z,6.68
2023-02-28T05:47:16.557Z,6.20
2023-02-28T05:50:18.615Z,8.63
2023-02-28T05:53:20.625Z,7.10
2023-02-28T05:56:23.169Z,7.60
2023-02-28T05:59:25.316Z,7.25
2023-02-28T06:02:27.285Z,8.00
2023-02-28T06:05:29.434Z,8.82
2023-02-28T06:08:31.412Z,7.28
2023-02-28T06:11:33.951Z,9.23
2023-02-28T06:14:35.978Z,8.70
2023-02-28T06:17:37.983Z,7.28
2023-02-28T06:20:40.124Z,8.35
2023-02-28T06:23:42.192Z,8.30
2023-02-28T06:26:44.034Z,7.43
2023-02-28T06:29:45.915Z,9.50
2023-02-28T06:32:47.723Z,7.00
2023-02-28T06:35:52.910Z,7.90
2023-02-28T06:38:54.813Z,7.97
2023-02-28T06:41:56.955Z,7.70
2023-02-28T06:44:59.426Z,8.23
2023-02-28T06:48:01.483Z,7.28
2023-02-28T06:51:08.884Z,8.48
2023-02-28T06:54:10.785Z,7.80
2023-02-28T06:57:12.646Z,7.78
2023-02-28T07:00:18.147Z,9.65
2023-02-28T07:03:20.395Z,9.15
2023-02-28T07:06:23.270Z,7.78
2023-02-28T07:09:25.126Z,8.15
2023-02-28T07:12:27.039Z,8.90
2023-02-28T07:15:28.877Z,7.63
2023-02-28T07:18:31.071Z,9.13
2023-02-28T07:21:33.009Z,8.73
2023-02-28T07:24:34.909Z,9.52
2023-02-28T07:27:37.356Z,7.05
2023-02-28T07:30:39.592Z,8.23
2023-02-28T07:33:42.282Z,7.50
2023-02-28T07:36:44.383Z,8.93
2023-02-28T07:39:46.295Z,7.90
2023-02-28T07:42:48.102Z,8.57
2023-02-28T07:45:52.564Z,9.63
2023-02-28T07:48:54.392Z,8.13
2023-02-28T07:51:56.326Z,8.57
2023-02-28T07:54:58.147Z,9.13
2023-02-28T07:58:00.853Z,6.57
2023-02-28T08:01:10.892Z,8.50
2023-02-28T08:04:12.729Z,8.45
2023-02-28T08:07:15.219Z,8.82
2023-02-28T08:10:17.272Z,8.77
2023-02-28T08:13:19.070Z,9.15
2023-02-28T08:16:21.004Z,11.63
2023-02-28T08:19:22.927Z,9.93
2023-02-28T08:22:24.871Z,8.73
2023-02-28T08:25:26.847Z,8.35
2023-02-28T08:28:28.884Z,7.50
2023-02-28T08:31:31.024Z,10.73
2023-02-28T08:34:33.215Z,7.43
2023-02-28T08:37:35.002Z,9.85
2023-02-28T08:40:37.106Z,10.75
2023-02-28T08:43:40.684Z,9.07
2023-02-28T08:46:42.827Z,8.35
2023-02-28T08:49:44.704Z,8.98
2023-02-28T08:52:46.548Z,9.27
2023-02-28T08:55:48.443Z,7.68
2023-02-28T08:58:51.541Z,9.10
2023-02-28T09:04:55.187Z,7.55
2023-02-28T09:07:56.992Z,9.43
2023-02-28T09:11:01.019Z,9.90
2023-02-28T09:14:04.444Z,10.82
2023-02-28T09:17:06.859Z,11.25
2023-02-28T09:20:09.481Z,8.27
2023-02-28T09:23:13.226Z,8.40
2023-02-28T09:26:26.508Z,9.02
2023-02-28T09:29:28.457Z,11.25
2023-02-28T09:32:30.383Z,9.63
2023-02-28T09:35:32.419Z,9.57
2023-02-28T09:38:34.324Z,8.27
2023-02-28T09:41:56.001Z,10.77
2023-02-28T09:44:59.556Z,9.38
2023-02-28T09:48:35.896Z,8.15
2023-02-28T09:51:46.507Z,8.15
2023-02-28T09:54:50.855Z,9.18
2023-02-28T09:57:55.704Z,7.70
2023-02-28T10:01:10.867Z,9.02
2023-02-28T10:04:38.125Z,9.52
2023-02-28T10:08:01.369Z,9.50
2023-02-28T10:11:07.474Z,9.98
2023-02-28T10:14:17.679Z,9.48
2023-02-28T10:17:29.687Z,8.25
2023-02-28T10:20:35.278Z,10.05
2023-02-28T10:23:38.832Z,11.48
2023-02-28T10:26:44.410Z,9.82
2023-02-28T10:29:49.558Z,9.98
2023-02-28T10:32:53.993Z,9.15
2023-02-28T10:35:56.276Z,14.30
2023-02-28T10:38:58.257Z,9.27
2023-02-28T10:42:00.150Z,10.77
2023-02-28T10:45:12.887Z,10.20
2023-02-28T10:48:14.705Z,12.88
2023-02-28T10:51:19.989Z,10.70
2023-02-28T10:54:33.491Z,10.43
2023-02-28T10:57:35.449Z,10.52
2023-02-28T11:00:37.562Z,10.93
2023-02-28T11:03:39.418Z,10.13
2023-02-28T11:06:41.423Z,8.90
2023-02-28T11:09:47.678Z,12.73
2023-02-28T11:12:52.802Z,10.38
2023-02-28T11:15:58.076Z,10.13
2023-02-28T11:19:00.585Z,8.38
2023-02-28T11:22:04.948Z,9.98
2023-02-28T11:25:25.923Z,11.80
2023-02-28T11:31:37.544Z,10.50
2023-02-28T11:34:41.090Z,11.88
2023-02-28T11:37:42.993Z,9.88
2023-02-28T11:40:56.833Z,9.45
2023-02-28T11:44:25.205Z,9.50
2023-02-28T11:47:52.779Z,11.48
2023-02-28T12:03:44.316Z,9.90
2023-02-28T12:07:12.035Z,10.52
2023-02-28T12:10:27.416Z,9.02
2023-02-28T12:13:57.413Z,9.32
2023-02-28T12:17:20.892Z,10.85
2023-02-28T12:20:38.504Z,8.68
2023-02-28T12:24:12.808Z,10.52
2023-02-28T12:27:17.875Z,10.02
2023-02-28T12:30:39.814Z,8.13
2023-02-28T12:33:51.695Z,10.07
2023-02-28T12:36:57.041Z,11.60
2023-02-28T12:40:07.556Z,10.45
2023-02-28T12:43:12.744Z,11.90
2023-02-28T12:46:24.576Z,12.40
2023-02-28T12:49:34.750Z,11.60
2023-02-28T12:53:03.337Z,11.52
2023-02-28T12:56:37.012Z,10.55
2023-02-28T13:00:10.768Z,10.57
2023-02-28T13:03:39.554Z,11.60
2023-02-28T13:06:41.398Z,12.55
2023-02-28T13:09:54.519Z,9.77
2023-02-28T13:12:56.599Z,9.82
2023-02-28T13:16:10.020Z,11.18
2023-02-28T13:19:12.766Z,11.40
2023-02-28T13:22:18.824Z,9.82
2023-02-28T13:25:23.864Z,10.05
2023-02-28T13:29:05.026Z,11.25
2023-02-28T13:32:10.110Z,9.98
2023-02-28T13:35:12.088Z,10.80
2023-02-28T13:38:32.940Z,10.60
2023-02-28T13:41:34.726Z,10.75
2023-02-28T13:45:02.441Z,11.07
2023-02-28T13:48:06.210Z,11.27
2023-02-28T13:51:41.040Z,11.90
2023-02-28T13:54:57.896Z,11.23
2023-02-28T13:58:11.304Z,11.55
2023-02-28T14:01:22.819Z,10.35
2023-02-28T14:04:47.328Z,11.35
2023-02-28T14:07:53.469Z,10.75
2023-02-28T14:11:10.285Z,11.55
2023-02-28T14:14:37.928Z,11.32
2023-02-28T14:17:41.628Z,10.43
2023-02-28T14:20:46.460Z,12.27
2023-02-28T14:23:48.289Z,11.30
2023-02-28T14:27:14.480Z,13.55
2023-02-28T14:30:43.490Z,11.85
2023-02-28T14:33:48.478Z,13.07
2023-02-28T14:36:53.370Z,13.40
2023-02-28T14:39:55.682Z,12.23
2023-02-28T14:43:01.532Z,11.68
2023-02-28T14:46:07.203Z,10.85
2023-02-28T14:49:27.017Z,11.25
2023-02-28T14:52:31.180Z,12.75
2023-02-28T14:55:36.288Z,11.55
2023-02-28T14:58:38.267Z,11.40
2023-02-28T15:01:40.261Z,10.35
2023-02-28T15:04:42.223Z,11.73
2023-02-28T15:07:49.030Z,10.98
2023-02-28T15:11:03.358Z,12.20
2023-02-28T15:14:05.690Z,11.15
2023-02-28T15:17:12.812Z,11.07
2023-02-28T15:20:17.090Z,12.15
2023-02-28T15:23:21.475Z,13.60
2023-02-28T15:26:31.927Z,10.52
2023-02-28T15:29:44.331Z,10.82
2023-02-28T15:33:02.308Z,12.15
2023-02-28T15:36:14.099Z,12.63
2023-02-28T15:39:22.875Z,12.02
2023-02-28T15:42:30.067Z,10.82
2023-02-28T15:45:36.821Z,12.10
2023-02-28T15:48:54.928Z,11.27
2023-02-28T15:52:00.580Z,11.73
2023-02-28T15:55:21.161Z,11.80
2023-02-28T15:58:23.446Z,12.20
2023-02-28T16:01:37.532Z,12.85
2023-02-28T16:05:10.692Z,12.10
2023-02-28T16:08:15.782Z,12.55
2023-02-28T16:11:17.943Z,11.45
2023-02-28T16:14:25.338Z,12.32
2023-02-28T16:17:30.707Z,11.43
2023-02-28T16:20:32.746Z,11.38
2023-02-28T16:23:34.636Z,12.98
2023-02-28T16:26:40.437Z,11.13
2023-02-28T16:29:42.319Z,13.60
2023-02-28T16:32:44.172Z,11.30
2023-02-28T16:35:46.078Z,14.02
2023-02-28T16:38:48.335Z,12.52
2023-02-28T16:41:52.216Z,15.00
2023-02-28T16:44:55.268Z,11.80
2023-02-28T16:47:57.232Z,11.48
2023-02-28T16:50:59.083Z,11.43
2023-02-28T16:54:00.941Z,11.50
2023-02-28T16:57:03.097Z,11.27
2023-02-28T17:00:07.356Z,12.93
2023-02-28T17:03:32.027Z,11.02
2023-02-28T17:06:34.819Z,13.68
2023-02-28T17:09:42.965Z,10.95
2023-02-28T17:12:45.589Z,12.25
2023-02-28T17:15:48.750Z,15.13
2023-02-28T17:18:51.819Z,12.57
2023-02-28T17:21:53.826Z,11.93
2023-02-28T17:24:55.795Z,12.80
2023-02-28T17:27:57.825Z,14.15
2023-02-28T17:31:00.124Z,12.43
2023-02-28T17:34:02.151Z,12.82
2023-02-28T17:37:06.803Z,12.32
2023-02-28T17:40:18.296Z,11.88
2023-02-28T17:43:22.652Z,13.05
2023-02-28T17:46:25.976Z,16.35
2023-02-28T17:49:28.181Z,16.10
2023-02-28T17:52:30.142Z,14.48
2023-02-28T17:55:32.525Z,15.90
2023-02-28T17:58:34.623Z,16.73
2023-02-28T18:01:39.203Z,15.35
2023-02-28T18:04:41.233Z,13.50
2023-02-28T18:07:43.356Z,14.77
2023-02-28T18:10:45.542Z,14.07
2023-02-28T18:13:54.981Z,15.32
2023-02-28T18:16:57.171Z,12.48
2023-02-28T18:19:59.433Z,20.13
2023-02-28T18:23:01.611Z,20.05
2023-02-28T18:26:09.757Z,17.17
2023-02-28T18:29:39.184Z,12.70
2023-02-28T18:32:42.621Z,13.57
2023-02-28T18:35:44.775Z,15.23
2023-02-28T18:38:47.598Z,14.32
2023-02-28T18:41:49.566Z,14.90
2023-02-28T18:44:51.729Z,15.52
2023-02-28T18:47:53.844Z,14.55
2023-02-28T18:50:56.424Z,16.25
2023-02-28T18:53:59.501Z,12.80
2023-02-28T19:00:04.353Z,14.70
2023-02-28T19:03:06.675Z,14.63
2023-02-28T19:06:09.295Z,14.30
2023-02-28T19:09:13.551Z,13.65
2023-02-28T19:12:15.661Z,15.43
2023-02-28T19:15:17.746Z,13.52
2023-02-28T19:18:19.597Z,12.93
2023-02-28T19:21:23.347Z,14.13
2023-02-28T19:24:25.418Z,11.90
2023-02-28T19:27:27.509Z,16.55
2023-02-28T19:30:29.429Z,15.52
2023-02-28T19:33:31.652Z,15.07
2023-02-28T19:36:33.525Z,14.55
2023-02-28T19:39:35.403Z,13.38
2023-02-28T19:42:37.509Z,15.05
2023-02-28T19:45:41.785Z,16.08
2023-02-28T19:48:43.912Z,15.18
2023-02-28T19:51:45.755Z,14.93
2023-02-28T19:54:48.284Z,15.48
2023-02-28T19:57:50.120Z,13.82
2023-02-28T20:00:52.613Z,13.23
2023-02-28T20:04:00.662Z,17.77
2023-02-28T20:07:02.553Z,15.68
2023-02-28T20:10:04.809Z,16.92
2023-02-28T20:13:06.705Z,16.50
2023-02-28T20:16:10.761Z,16.65
2023-02-28T20:19:12.708Z,15.07
2023-02-28T20:22:14.604Z,14.40
2023-02-28T20:25:16.658Z,17.00
2023-02-28T20:28:19.540Z,15.82
2023-02-28T20:31:23.860Z,17.35
2023-02-28T20:34:25.808Z,17.42
2023-02-28T20:37:28.118Z,20.05
2023-02-28T20:40:29.986Z,16.60
2023-02-28T20:43:31.872Z,17.70
2023-02-28T20:46:36.035Z,16.77
2023-02-28T20:49:37.956Z,14.98
2023-02-28T20:52:39.780Z,20.38
2023-02-28T20:55:41.659Z,16.27
2023-02-28T20:58:45.683Z,16.30
2023-02-28T21:01:48.678Z,17.83
2023-02-28T21:04:50.513Z,17.02
2023-02-28T21:07:52.679Z,17.38
2023-02-28T21:10:54.538Z,16.83
2023-02-28T21:13:59.641Z,14.20
2023-02-28T21:17:04.058Z,19.55
2023-02-28T21:20:06.409Z,14.05
2023-02-28T21:23:08.231Z,15.68
2023-02-28T21:26:13.700Z,14.48
2023-02-28T21:29:16.111Z,14.07
2023-02-28T21:32:18.222Z,15.52
2023-02-28T21:35:22.397Z,15.25
2023-02-28T21:38:24.342Z,17.63
2023-02-28T21:41:27.159Z,15.65
2023-02-28T21:44:29.662Z,15.13
2023-02-28T21:47:31.668Z,14.38
2023-02-28T21:50:33.507Z,15.45
2023-02-28T21:53:37.963Z,13.82
2023-02-28T21:56:40.069Z,15.93
2023-02-28T21:59:44.860Z,15.52
2023-02-28T22:02:46.836Z,12.23
2023-02-28T22:05:48.655Z,13.82
2023-02-28T22:08:55.485Z,12.75
2023-02-28T22:11:57.896Z,12.43
2023-02-28T22:14:59.783Z,14.57
2023-02-28T22:18:01.631Z,16.00
2023-02-28T22:21:04.003Z,13.77
2023-02-28T22:24:06.492Z,13.95
2023-02-28T22:27:08.535Z,14.40
2023-02-28T22:30:10.998Z,13.98
2023-02-28T22:33:13.009Z,13.57
2023-02-28T22:36:17.447Z,15.23
2023-02-28T22:39:19.413Z,13.77
2023-02-28T22:42:21.297Z,13.73
2023-02-28T22:45:23.224Z,13.63
2023-02-28T22:48:25.066Z,14.18
2023-02-28T22:51:28.037Z,15.15
2023-02-28T22:54:29.877Z,16.27
2023-02-28T22:57:31.747Z,12.43
2023-02-28T23:00:33.575Z,13.80
2023-02-28T23:03:35.999Z,14.23
2023-02-28T23:06:39.569Z,15.25
2023-02-28T23:09:41.520Z,12.85
2023-02-28T23:12:44.140Z,12.05
2023-02-28T23:15:46.705Z,12.80
2023-02-28T23:18:48.591Z,13.15
2023-02-28T23:21:50.800Z,13.00
2023-02-28T23:24:52.663Z,14.35
2023-02-28T23:27:54.595Z,15.18
2023-02-28T23:31:00.554Z,11.93
2023-02-28T23:34:02.480Z,11.70
2023-02-28T23:37:04.388Z,13.35
2023-02-28T23:40:08.918Z,13.63
2023-02-28T23:43:10.781Z,16.00
2023-02-28T23:46:14.213Z,13.75
2023-02-28T23:49:16.844Z,14.15
2023-02-28T23:52:19.139Z,18.05
2023-02-28T23:55:21.092Z,11.52
2023-02-28T23:58:22.956Z,15.90
